Pagina principale
METAR-TAF:

METAR-TAF

Aeroporti :

Payam

Karaj, Iran

latitudine: 35-46-34N, longitudine: 050-49-36E, altezza: 1271 m

Osservazione

Il bollettino è stato emesso 45 minuti fa, alle 16:00 UTC
Vento 6 kt da nord
Temperature 29°C
Umidità 16%
Pressione 1014 hPa
Visibilità 10 km o più
nessuna nube inferiore a 1500 m e nessun cumulonembo

METAR: OIIP 051600Z 35006KT CAVOK 29/01 Q1013 A2994

Ora: 21:15 (16:45 UTC)


TAF: mancante

Osservazioni e previsioni meteorologiche di più di 4000 aeroporti (messaggi METAR e TAF).

Le stazioni disponibili sono rappresentate dai dischi gialli e rossi sulla carta.

Puntare il mouse per vedere il nome della stazione.

Clicca sopra per visualizzare le osservazioni e previsioni meteorologiche.

Per cambiare la mappa : fare clic sui pulsanti verdi con una croce nera per ingrandire, il pulsante verde con un trattino per diminuire, o sulla freccia verde per le mappe adiacenti.


METAR-TAF: